M I D A S
Marine Information and Data Acquisition System
Tripno 2199 of the Zeeleeuw from 2011-10-17 06:50:59 to 2011-10-17 16:44:45
Back to CruiseResearch ActivitiesStationsMapUnderway DataData graphs

EquipmentUnitsComment
TimeDGPSUTC
LatitudeDGPSDM.mWGS84
LongitudeDGPSDM.mWGS84
HeadingGyrodeg 
SOGDGPSknotsSpeed over ground
COGDGPSdegCourse over ground
DepthEcho soundermeters200 kHz
Missing or incorrect values are displayed as -999
Navigation data collected by the RV Zeeleeuw from 2011-10-17 06:19:01 to 2011-10-17 16:52:47
Time Latitude Longitude Heading SOG COG Depth
2011-10-17 06:20:05 51°13.636 2°56.017 126.3 -999 236 7.8
2011-10-17 06:21:06 51°13.636 2°56.018 126.4 -999 110 7.8
2011-10-17 06:22:06 51°13.636 2°56.017 125.1 -999 116 7.9
2011-10-17 06:23:05 51°13.636 2°56.016 123.4 0.1 309 7.8
2011-10-17 06:24:04 51°13.637 2°56.014 125.8 -999 161 8.1
2011-10-17 06:25:03 51°13.637 2°56.014 125.8 -999 216 5.9
2011-10-17 06:26:03 51°13.637 2°56.015 122.7 -999 203 8
2011-10-17 06:27:03 51°13.637 2°56.015 125.7 0.1 310 7.9
2011-10-17 06:28:03 51°13.637 2°56.015 126.4 -999 300 8
2011-10-17 06:29:03 51°13.637 2°56.016 126.4 -999 254 7.9
2011-10-17 06:30:03 51°13.637 2°56.016 126.8 -999 321 8
2011-10-17 06:31:03 51°13.637 2°56.016 126.8 -999 317 7.8
2011-10-17 06:32:03 51°13.638 2°56.016 126.5 -999 130 5.8
2011-10-17 06:33:03 51°13.638 2°56.016 126.5 -999 20 7.8
2011-10-17 06:34:03 51°13.637 2°56.016 125.9 -999 196 7.9
2011-10-17 06:35:03 51°13.637 2°56.015 126.2 -999 13 7.8
2011-10-17 06:36:03 51°13.637 2°56.016 126.2 -999 358 7.9
2011-10-17 06:37:03 51°13.637 2°56.016 126.1 -999 342 7.9
2011-10-17 06:38:03 51°13.637 2°56.015 126 -999 256 7.8
2011-10-17 06:39:03 51°13.636 2°56.015 125.8 -999 96 7.8
2011-10-17 06:40:03 51°13.637 2°56.017 125.8 -999 163 5.8
2011-10-17 06:41:03 51°13.635 2°56.015 125.7 -999 214 7.7
2011-10-17 06:42:03 51°13.635 2°56.015 125.7 -999 261 7.7
2011-10-17 06:43:03 51°13.636 2°56.014 126 -999 185 7.7
2011-10-17 06:44:03 51°13.636 2°56.015 126 -999 140 7.6
2011-10-17 06:45:03 51°13.637 2°56.015 126.4 -999 130 7.8
2011-10-17 06:46:03 51°13.638 2°56.016 125.9 0.1 11 7.6
2011-10-17 06:47:03 51°13.639 2°56.016 125.7 -999 14 7.8
2011-10-17 06:48:03 51°13.64 2°56.016 125.7 0.1 291 7.6
2011-10-17 06:49:03 51°13.64 2°56.017 126.4 0.1 63 7.5
2011-10-17 06:50:03 51°13.639 2°56.017 125.6 0.1 234 5.7
2011-10-17 06:51:02 51°13.641 2°56.017 126.9 0.1 328 5.7
2011-10-17 06:52:03 51°13.64 2°56.016 129.4 -999 243 7.5
2011-10-17 06:53:03 51°13.64 2°56.015 133.9 0.1 241 7.5
2011-10-17 06:54:03 51°13.638 2°56.012 140.9 0.1 214 4.9
2011-10-17 06:55:03 51°13.621 2°56.031 138.2 1.9 137 10
2011-10-17 06:56:06 51°13.631 2°55.997 121.3 3.2 304 -999
2011-10-17 06:57:06 51°13.669 2°55.902 115.5 4.6 298 -999
2011-10-17 06:58:06 51°13.697 2°55.803 100 3.7 287 -999
2011-10-17 06:59:06 51°13.702 2°55.738 71.2 0.6 286 12.6
2011-10-17 07:00:04 51°13.707 2°55.741 20 1.4 201 12.3
2011-10-17 07:01:06 51°13.717 2°55.727 337.1 3.9 337 -999
2011-10-17 07:02:04 51°13.81 2°55.657 334.4 8 336 11.9
2011-10-17 07:03:03 51°13.939 2°55.574 339.3 8.6 340 11.4
2011-10-17 07:04:03 51°14.072 2°55.488 332.7 9 332 11.3
2011-10-17 07:05:05 51°14.217 2°55.355 328.7 10.5 329 -999
2011-10-17 07:06:04 51°14.373 2°55.213 329.6 11.2 330 -999
2011-10-17 07:07:03 51°14.531 2°55.056 327.9 11.7 328 11.4
2011-10-17 07:08:03 51°14.696 2°54.87 329.9 12.3 326 11.5
2011-10-17 07:09:03 51°14.881 2°54.757 350.8 11.8 350 10
2011-10-17 07:10:03 51°15.076 2°54.741 2.3 11.6 357 8.8
2011-10-17 07:11:03 51°15.264 2°54.664 347 11.9 345 8.6
2011-10-17 07:12:03 51°15.456 2°54.587 348.6 11.9 346 9.2
2011-10-17 07:13:03 51°15.65 2°54.522 353.4 11.9 352 9.8
2011-10-17 07:14:03 51°15.845 2°54.454 346.9 12 342 10.2
2011-10-17 07:15:03 51°16.012 2°54.369 348.1 8.4 345 10.6
2011-10-17 07:16:03 51°16.114 2°54.333 355.7 4.9 348 10.7
2011-10-17 07:17:03 51°16.178 2°54.302 346.8 3.7 337 10.9
2011-10-17 07:18:02 51°16.233 2°54.275 4.7 2.9 354 11
2011-10-17 07:19:03 51°16.254 2°54.267 13.9 0.6 330 11
2011-10-17 07:20:02 51°16.263 2°54.26 19 0.5 335 11
2011-10-17 07:21:03 51°16.271 2°54.252 11.7 0.6 325 11
2011-10-17 07:22:03 51°16.278 2°54.241 1.9 0.6 315 11
2011-10-17 07:23:03 51°16.285 2°54.229 354.5 0.6 305 11.1
2011-10-17 07:24:03 51°16.29 2°54.215 348.4 0.6 300 11
2011-10-17 07:25:03 51°16.295 2°54.201 342.7 0.6 298 11
2011-10-17 07:26:03 51°16.299 2°54.185 337.6 0.7 292 11
2011-10-17 07:27:03 51°16.302 2°54.169 333 0.7 284 11
2011-10-17 07:28:03 51°16.304 2°54.152 330.8 0.7 277 11
2011-10-17 07:29:03 51°16.305 2°54.137 331 0.5 281 11
2011-10-17 07:30:03 51°16.306 2°54.125 335.2 0.4 275 11
2011-10-17 07:31:03 51°16.306 2°54.115 342 0.3 274 11.1
2011-10-17 07:32:03 51°16.306 2°54.107 347.4 0.3 273 11.1
2011-10-17 07:33:03 51°16.305 2°54.1 353.5 0.2 253 11
2011-10-17 07:34:03 51°16.304 2°54.093 357.9 0.3 254 11
2011-10-17 07:35:05 51°16.272 2°54.081 10.3 3.5 197 -999
2011-10-17 07:36:06 51°16.213 2°54.032 34.3 3.2 218 -999
2011-10-17 07:37:04 51°16.202 2°54.038 87.6 2.7 96 10.9
2011-10-17 07:38:03 51°16.218 2°54.16 68.2 5.9 68 10.7
2011-10-17 07:39:03 51°16.255 2°54.31 67.4 5 60 10.8
2011-10-17 07:40:03 51°16.286 2°54.343 15.1 0.4 217 10.9
2011-10-17 07:41:03 51°16.281 2°54.331 20.1 0.5 238 10.8
2011-10-17 07:42:03 51°16.278 2°54.322 22.2 0.4 245 10.9
2011-10-17 07:43:03 51°16.275 2°54.313 19.6 0.3 247 10.7
2011-10-17 07:44:03 51°16.29 2°54.305 0.9 2.9 345 10.8
2011-10-17 07:45:02 51°16.386 2°54.205 326.2 10.3 318 10.7
2011-10-17 07:46:03 51°16.492 2°53.938 302.5 12.4 300 11.1
2011-10-17 07:47:03 51°16.598 2°53.654 303.7 12.4 302 11.2
2011-10-17 07:48:03 51°16.721 2°53.39 311.2 12.3 309 11
2011-10-17 07:49:02 51°16.847 2°53.139 311.2 12.2 309 9.1
2011-10-17 07:50:03 51°16.97 2°52.877 309.3 12.3 309 8.8
2011-10-17 07:51:03 51°17.117 2°52.652 323.1 12.1 322 9.1
2011-10-17 07:52:03 51°17.28 2°52.462 325.8 12.2 324 9.8
2011-10-17 07:53:03 51°17.441 2°52.266 323.1 12.2 320 10.3
2011-10-17 07:54:03 51°17.595 2°52.054 322.1 12.2 320 10.6
2011-10-17 07:55:03 51°17.746 2°51.838 319.6 12.2 318 9.6
2011-10-17 07:56:03 51°17.899 2°51.625 320.6 12.2 319 9.9
2011-10-17 07:57:03 51°18.056 2°51.418 323.8 12.3 323 10.7
2011-10-17 07:58:02 51°18.221 2°51.234 327.1 12.3 325 11.8
2011-10-17 07:59:03 51°18.354 2°51.079 319 6.5 316 12.8
2011-10-17 08:00:03 51°18.426 2°51.033 14.7 3.5 11 13.1
2011-10-17 08:01:02 51°18.467 2°51.052 23.1 2.1 16 13.2
2011-10-17 08:02:03 51°18.501 2°51.059 9.7 1.7 358 13.4
2011-10-17 08:03:03 51°18.512 2°51.052 355.6 0.5 318 13.6
2011-10-17 08:04:03 51°18.517 2°51.043 342.5 0.4 313 13.4
2011-10-17 08:05:03 51°18.521 2°51.035 339.8 0.4 300 13.5
2011-10-17 08:06:03 51°18.524 2°51.026 338.3 0.4 293 13.5
2011-10-17 08:07:02 51°18.526 2°51.018 336.5 0.3 298 13.5
2011-10-17 08:08:03 51°18.528 2°51.012 339.2 0.3 299 13.5
2011-10-17 08:09:03 51°18.529 2°51.006 339.6 0.3 282 13.4
2011-10-17 08:10:03 51°18.53 2°51.001 342.9 0.2 288 13.4
2011-10-17 08:11:03 51°18.531 2°50.996 345.3 0.2 280 13.6
2011-10-17 08:12:03 51°18.531 2°50.992 346.1 0.1 264 13.4
2011-10-17 08:13:03 51°18.532 2°50.988 346.4 0.2 286 13.5
2011-10-17 08:14:03 51°18.565 2°50.989 19.1 3.9 22 13.7
2011-10-17 08:15:03 51°18.618 2°51.116 60.8 8.5 61 13.5
2011-10-17 08:16:03 51°18.682 2°51.38 71.4 11.5 73 13.4
2011-10-17 08:17:03 51°18.725 2°51.675 77.3 11.4 79 13.1
2011-10-17 08:18:02 51°18.777 2°51.96 69.6 11.4 71 12.5
2011-10-17 08:19:03 51°18.832 2°52.257 72.6 11.4 74 12.1
2011-10-17 08:20:03 51°18.89 2°52.544 66.9 11.3 67 11.8
2011-10-17 08:21:03 51°18.962 2°52.822 66.3 11.3 68 11.5
2011-10-17 08:22:03 51°19.027 2°53.103 67.6 11.2 70 11.3
2011-10-17 08:23:02 51°19.079 2°53.386 75 11.3 76 11.3
2011-10-17 08:24:03 51°19.127 2°53.682 74 11.4 75 11.3
2011-10-17 08:25:03 51°19.179 2°53.971 71.4 11.3 73 11.2
2011-10-17 08:26:03 51°19.248 2°54.251 66.9 11.3 68 11.2
2011-10-17 08:27:02 51°19.315 2°54.525 67.8 11.2 70 11.2
2011-10-17 08:28:03 51°19.367 2°54.817 74.8 11.2 76 11.1
2011-10-17 08:29:03 51°19.416 2°55.106 71 11.3 71 11.1
2011-10-17 08:30:03 51°19.472 2°55.39 73.1 11.1 75 11
2011-10-17 08:31:03 51°19.527 2°55.675 68.5 11.2 70 11
2011-10-17 08:32:03 51°19.595 2°55.95 68.3 11.1 71 10.9
2011-10-17 08:33:03 51°19.652 2°56.23 70.8 11.2 73 10.8
2011-10-17 08:34:03 51°19.701 2°56.516 76.5 11.1 78 10.7
2011-10-17 08:35:03 51°19.745 2°56.8 76 11 78 10.6
2011-10-17 08:36:03 51°19.78 2°57.087 77 11 78 10.4
2011-10-17 08:37:03 51°19.82 2°57.371 74.8 10.9 75 10.3
2011-10-17 08:38:02 51°19.873 2°57.644 73.1 10.9 75 10.2
2011-10-17 08:39:02 51°19.922 2°57.922 73.4 10.7 76 10.1
2011-10-17 08:40:03 51°19.969 2°58.205 71.1 10.8 71 10
2011-10-17 08:41:02 51°20.024 2°58.472 73.2 10.7 76 9.8
2011-10-17 08:42:03 51°20.063 2°58.757 76.3 10.7 77 9.6
2011-10-17 08:43:03 51°20.111 2°59.029 70.4 10.7 71 9.5
2011-10-17 08:44:03 51°20.17 2°59.294 69.7 10.6 70 9.4
2011-10-17 08:45:02 51°20.214 2°59.56 77 10.5 78 9.3
2011-10-17 08:46:03 51°20.252 2°59.839 75.8 10.5 77 9.1
2011-10-17 08:47:03 51°20.309 3°0.102 69.6 10.5 69 9
2011-10-17 08:48:03 51°20.355 3°0.37 76.3 10.5 76 9.1
2011-10-17 08:49:03 51°20.413 3°0.633 70.5 10.5 70 9
2011-10-17 08:50:03 51°20.47 3°0.893 71.3 10.3 71 9
2011-10-17 08:51:03 51°20.523 3°1.156 72.1 10.4 72 8.8
2011-10-17 08:52:03 51°20.562 3°1.424 79.1 10.4 79 8.7
2011-10-17 08:53:03 51°20.601 3°1.695 76.5 10.4 78 8.6
2011-10-17 08:54:02 51°20.649 3°1.958 70.7 10.6 71 8.5
2011-10-17 08:55:03 51°20.7 3°2.231 75 10.6 75 8.8
2011-10-17 08:56:03 51°20.76 3°2.494 69 10.6 70 9
2011-10-17 08:57:03 51°20.804 3°2.766 76 10.5 77 9
2011-10-17 08:58:03 51°20.859 3°3.032 69.6 10.5 70 9
2011-10-17 08:59:03 51°20.907 3°3.301 72.4 10.5 73 9.2
2011-10-17 09:00:03 51°20.981 3°3.553 61.3 10.5 60 9.1
2011-10-17 09:01:03 51°21.067 3°3.798 63.3 10.5 63 9.3
2011-10-17 09:02:03 51°21.135 3°4.054 69.3 10.4 68 9.2
2011-10-17 09:03:03 51°21.214 3°4.304 64 10.6 64 9.4
2011-10-17 09:04:03 51°21.296 3°4.553 64.8 10.5 65 9.5
2011-10-17 09:05:03 51°21.365 3°4.812 68.1 10.6 66 9.5
2011-10-17 09:06:03 51°21.451 3°5.055 62.5 10.6 59 9.6
2011-10-17 09:07:03 51°21.528 3°5.304 68.4 10.5 69 9.6
2011-10-17 09:08:03 51°21.595 3°5.56 63.6 10.4 62 9.7
2011-10-17 09:09:03 51°21.676 3°5.804 62.6 10.4 61 9.8
2011-10-17 09:10:03 51°21.749 3°6.057 69 10.5 69 9.8
2011-10-17 09:11:03 51°21.815 3°6.318 65.9 10.5 64 10
2011-10-17 09:12:03 51°21.901 3°6.564 62.2 10.6 61 10.3
2011-10-17 09:13:03 51°21.984 3°6.813 63.2 10.6 61 10.6
2011-10-17 09:14:03 51°22.054 3°7.073 70.3 10.7 70 11.3
2011-10-17 09:15:03 51°22.122 3°7.335 67.4 10.6 65 11.3
2011-10-17 09:16:03 51°22.208 3°7.583 62.9 10.7 62 11.5
2011-10-17 09:17:03 51°22.286 3°7.834 69.5 10.5 69 11.5
2011-10-17 09:18:03 51°22.354 3°8.093 66.6 10.6 65 11.6
2011-10-17 09:19:03 51°22.44 3°8.343 62 10.7 61 11.9
2011-10-17 09:20:03 51°22.502 3°8.609 74.1 10.8 74 12
2011-10-17 09:21:03 51°22.563 3°8.877 69 10.7 68 12.2
2011-10-17 09:22:03 51°22.623 3°9.146 76.2 10.8 81 12.4
2011-10-17 09:23:03 51°22.609 3°9.432 97.5 10.8 102 12.1
2011-10-17 09:24:03 51°22.573 3°9.713 97.2 10.8 101 12.6
2011-10-17 09:25:03 51°22.541 3°9.996 97.2 10.8 100 13.2
2011-10-17 09:26:03 51°22.517 3°10.285 92.6 11 95 17
2011-10-17 09:27:03 51°22.483 3°10.573 101.9 10.8 102 15.4
2011-10-17 09:28:03 51°22.473 3°10.857 89.6 10.6 90 14.7
2011-10-17 09:29:03 51°22.477 3°11.142 90.9 10.8 94 14.6
2011-10-17 09:30:03 51°22.481 3°11.427 85.4 10.8 85 14.6
2011-10-17 09:31:03 51°22.502 3°11.712 81.5 11 81 14.3
2011-10-17 09:32:02 51°22.523 3°11.994 87.2 10.9 90 13.8
2011-10-17 09:33:03 51°22.524 3°12.285 85.2 10.6 84 13.3
2011-10-17 09:34:03 51°22.536 3°12.57 89.7 10.7 89 12.6
2011-10-17 09:35:03 51°22.55 3°12.831 78.4 7.4 74 12.1
2011-10-17 09:36:03 51°22.573 3°12.973 82.9 4.6 84 11.7
2011-10-17 09:37:02 51°22.573 3°13.068 94.3 3.7 97 11.5
2011-10-17 09:38:03 51°22.555 3°13.187 101.7 5.6 106 11.2
2011-10-17 09:39:03 51°22.544 3°13.341 78.4 4.7 66 10.9
2011-10-17 09:40:03 51°22.598 3°13.371 6.7 2.9 345 10.9
2011-10-17 09:41:02 51°22.62 3°13.338 330.5 1.6 303 10.8
2011-10-17 09:42:03 51°22.632 3°13.302 317.6 1.4 294 11
2011-10-17 09:43:02 51°22.641 3°13.27 313 1.4 292 11
2011-10-17 09:44:03 51°22.65 3°13.238 309.9 1.2 292 11.2
2011-10-17 09:45:03 51°22.658 3°13.209 309.6 1.2 291 11.2
2011-10-17 09:46:03 51°22.663 3°13.182 309.1 1.1 289 11.2
2011-10-17 09:47:03 51°22.67 3°13.155 307.4 1.1 292 11.2
2011-10-17 09:48:03 51°22.679 3°13.119 308.3 2.2 297 11.5
2011-10-17 09:49:03 51°22.721 3°13.035 325.2 5.8 317 11.4
2011-10-17 09:50:02 51°22.834 3°12.901 336.9 11 332 10.7
2011-10-17 09:51:03 51°23.019 3°12.77 344.1 12.2 337 10.6
2011-10-17 09:52:02 51°23.198 3°12.619 338.2 12.3 331 10.8
2011-10-17 09:53:03 51°23.37 3°12.428 331.4 12.4 324 11
2011-10-17 09:54:03 51°23.539 3°12.243 333 12.2 328 10.7
2011-10-17 09:55:03 51°23.714 3°12.081 336.1 12.1 329 11
2011-10-17 09:56:03 51°23.883 3°11.897 331.3 12.3 325 12.2
2011-10-17 09:57:03 51°24.056 3°11.721 335.5 12.4 326 15.4
2011-10-17 09:58:03 51°24.203 3°11.49 308.2 13 300 17.6
2011-10-17 09:59:02 51°24.3 3°11.185 303.5 13.1 298 18.4
2011-10-17 10:00:02 51°24.395 3°10.874 298.6 13.1 293 16.5
2011-10-17 10:01:03 51°24.491 3°10.558 303.2 12.8 297 13
2011-10-17 10:02:02 51°24.549 3°10.237 282.3 13 276 10.9
2011-10-17 10:03:03 51°24.576 3°9.888 283.2 13 278 10
2011-10-17 10:04:02 51°24.605 3°9.554 282.8 12.8 277 9.5
2011-10-17 10:05:03 51°24.63 3°9.21 280.5 12.7 276 9.2
2011-10-17 10:06:02 51°24.637 3°8.878 275.6 12.7 272 9.2
2011-10-17 10:07:03 51°24.648 3°8.538 277.9 12.5 274 9.2
2011-10-17 10:08:02 51°24.664 3°8.212 278.8 12.5 275 9.5
2011-10-17 10:09:03 51°24.682 3°7.878 280.2 12.3 277 9.7
2011-10-17 10:10:02 51°24.738 3°7.574 302.1 12 297 9.8
2011-10-17 10:11:03 51°24.876 3°7.356 336.7 11.3 334 9.7
2011-10-17 10:12:02 51°25.05 3°7.264 348.5 11.2 343 8.3
2011-10-17 10:13:03 51°25.227 3°7.158 343.9 11.2 340 8.9
2011-10-17 10:14:03 51°25.408 3°7.088 353.5 11.1 348 9.1
2011-10-17 10:15:02 51°25.586 3°7.02 352.4 11.1 346 9.3
2011-10-17 10:16:03 51°25.736 3°7.115 46.4 10.5 48 9.5
2011-10-17 10:17:02 51°25.842 3°7.342 54.4 10.9 57 8.9
2011-10-17 10:18:03 51°25.938 3°7.592 53.1 10.7 51 8.2
2011-10-17 10:19:03 51°26.064 3°7.799 44.3 10.9 42 8.6
2011-10-17 10:20:02 51°26.195 3°7.993 45.1 10.8 45 8.6
2011-10-17 10:21:03 51°26.323 3°8.206 46 11 46 9.2
2011-10-17 10:22:02 51°26.419 3°8.351 33.2 5 28 9.6
2011-10-17 10:23:03 51°26.45 3°8.359 344.8 0.3 241 9.6
2011-10-17 10:24:02 51°26.444 3°8.353 329.1 0.5 203 9.7
2011-10-17 10:25:03 51°26.434 3°8.348 321.3 0.6 189 9.7
2011-10-17 10:26:02 51°26.423 3°8.348 320.2 0.7 181 9.7
2011-10-17 10:27:03 51°26.411 3°8.349 324.2 0.8 168 9.6
2011-10-17 10:28:02 51°26.397 3°8.352 333.2 0.9 178 9.6
2011-10-17 10:29:03 51°26.383 3°8.352 339.4 0.8 178 9.7
2011-10-17 10:30:02 51°26.371 3°8.351 341.9 0.4 274 9.5
2011-10-17 10:31:03 51°26.395 3°8.279 303.1 6.2 289 9.5
2011-10-17 10:32:03 51°26.451 3°8.066 304.1 10.2 296 9.3
2011-10-17 10:33:03 51°26.541 3°7.801 304.9 11.8 297 9
2011-10-17 10:34:03 51°26.632 3°7.512 305 12.3 298 10.3
2011-10-17 10:35:02 51°26.731 3°7.235 306.2 12.2 300 10.8
2011-10-17 10:36:03 51°26.831 3°6.946 304.4 12.3 298 11.3
2011-10-17 10:37:02 51°26.93 3°6.668 306.4 12.2 300 11.6
2011-10-17 10:38:02 51°27.042 3°6.399 313.6 12.1 306 12.2
2011-10-17 10:39:03 51°27.161 3°6.13 310.7 12.2 305 12.7
2011-10-17 10:40:02 51°27.267 3°5.859 308.9 12.3 303 13.1
2011-10-17 10:41:03 51°27.381 3°5.581 307.1 12.4 300 13.7
2011-10-17 10:42:02 51°27.489 3°5.308 312.2 12.3 306 14.1
2011-10-17 10:43:03 51°27.605 3°5.03 310.5 12.5 303 13.6
2011-10-17 10:44:02 51°27.722 3°4.766 314.6 12.4 307 12.5
2011-10-17 10:45:03 51°27.849 3°4.497 315.5 12.4 309 15.2
2011-10-17 10:46:02 51°27.971 3°4.239 312.9 12.5 305 17
2011-10-17 10:47:03 51°28.089 3°3.959 311.7 12.4 304 19
2011-10-17 10:48:03 51°28.21 3°3.69 315 12.5 306 20.6
2011-10-17 10:49:03 51°28.311 3°3.448 307.2 7.6 293 22.2
2011-10-17 10:50:03 51°28.321 3°3.354 325.9 1.4 240 22.2
2011-10-17 10:51:06 51°28.297 3°3.331 355.5 1.6 212 -999
2011-10-17 10:52:05 51°28.277 3°3.308 0.1 1.4 217 22.3
2011-10-17 10:53:03 51°28.262 3°3.287 358.5 1.2 221 22
2011-10-17 10:54:02 51°28.251 3°3.266 351.3 1 226 22.3
2011-10-17 10:55:02 51°28.241 3°3.245 347.2 1 236 22.3
2011-10-17 10:56:02 51°28.232 3°3.223 340.6 1.1 239 22.1
2011-10-17 10:57:02 51°28.223 3°3.202 334.2 1 235 22.2
2011-10-17 10:58:02 51°28.235 3°3.173 357.5 2.9 348 22.2
2011-10-17 10:59:03 51°28.264 3°3.251 73.7 5.4 75 22.3
2011-10-17 11:00:02 51°28.349 3°3.379 40.6 8.6 42 22.4
2011-10-17 11:01:03 51°28.414 3°3.578 80.2 6.4 92 22.1
2011-10-17 11:02:02 51°28.357 3°3.676 126.4 5.2 139 21.7
2011-10-17 11:03:03 51°28.282 3°3.73 167.8 5 184 21
2011-10-17 11:04:02 51°28.22 3°3.672 231.7 3.1 229 20.8
2011-10-17 11:05:03 51°28.202 3°3.628 275.1 1.4 242 21.1
2011-10-17 11:06:02 51°28.192 3°3.602 303.9 1.1 240 21
2011-10-17 11:07:03 51°28.181 3°3.586 327.2 0.9 220 21.1
2011-10-17 11:08:03 51°28.169 3°3.573 339.8 0.9 216 20.6
2011-10-17 11:09:03 51°28.157 3°3.56 344.9 1 214 20.9
2011-10-17 11:10:02 51°28.146 3°3.545 341.9 0.9 221 20.8
2011-10-17 11:11:02 51°28.134 3°3.531 337.6 0.9 204 21
2011-10-17 11:12:03 51°28.122 3°3.518 337.2 0.8 219 20.6
2011-10-17 11:13:03 51°28.11 3°3.507 335.5 0.8 213 20.7
2011-10-17 11:14:03 51°28.099 3°3.496 334 0.8 220 20.5
2011-10-17 11:15:03 51°28.088 3°3.483 330.8 0.8 222 20.5
2011-10-17 11:16:03 51°28.078 3°3.471 329 0.8 217 20.4
2011-10-17 11:17:02 51°28.068 3°3.459 330.7 0.8 220 20.4
2011-10-17 11:18:03 51°28.059 3°3.444 326.6 0.8 256 20.6
2011-10-17 11:19:03 51°28.062 3°3.398 290.8 2.4 270 20.7
2011-10-17 11:20:03 51°28.051 3°3.323 250.5 3.6 246 20.6
2011-10-17 11:21:03 51°27.999 3°3.126 256.3 10.9 256 21.1
2011-10-17 11:22:03 51°27.959 3°2.796 261.1 13.2 259 21.4
2011-10-17 11:23:03 51°27.913 3°2.45 259.7 13.3 257 22.2
2011-10-17 11:24:03 51°27.861 3°2.103 257.5 13.5 256 22.5
2011-10-17 11:25:02 51°27.81 3°1.76 260.1 13.5 258 22.2
2011-10-17 11:26:03 51°27.748 3°1.406 254.7 13.6 253 21.7
2011-10-17 11:27:02 51°27.693 3°1.061 259.9 13.6 257 23.2
2011-10-17 11:28:03 51°27.637 3°0.704 256.3 13.6 253 23.5
2011-10-17 11:29:02 51°27.581 3°0.359 262.1 13.6 260 21.5
2011-10-17 11:30:03 51°27.544 2°59.999 262.4 13.4 259 20.8
2011-10-17 11:31:02 51°27.5 2°59.656 260.7 13.4 259 18.4
2011-10-17 11:32:03 51°27.46 2°59.303 262.3 13.1 259 20.1
2011-10-17 11:33:02 51°27.415 2°58.965 258.6 13.2 257 18
2011-10-17 11:34:03 51°27.394 2°58.614 273 12.9 270 16.7
2011-10-17 11:35:03 51°27.401 2°58.266 275.1 13.1 271 18
2011-10-17 11:36:03 51°27.403 2°57.916 271.8 13.2 269 21.4
2011-10-17 11:37:03 51°27.393 2°57.563 271.1 13.2 269 24.7
2011-10-17 11:38:03 51°27.392 2°57.211 270.4 13.3 267 25.7
2011-10-17 11:39:03 51°27.383 2°56.857 269 13.3 265 23
2011-10-17 11:40:02 51°27.338 2°56.512 254 13.5 252 25.8
2011-10-17 11:41:02 51°27.264 2°56.174 252.8 13.4 251 27.8
2011-10-17 11:42:02 51°27.194 2°55.836 255 13.4 254 28
2011-10-17 11:43:02 51°27.129 2°55.496 254.7 13.3 254 29
2011-10-17 11:44:02 51°27.071 2°55.154 257.7 13.3 256 27.9
2011-10-17 11:45:03 51°27.008 2°54.808 252.1 13.3 251 27.5
2011-10-17 11:46:03 51°26.938 2°54.47 256.3 13.4 255 25.7
2011-10-17 11:47:03 51°26.882 2°54.124 257.6 13.5 255 23
2011-10-17 11:48:03 51°26.823 2°53.78 255.6 13.4 253 26.8
2011-10-17 11:49:03 51°26.753 2°53.442 251.9 13.3 251 28.5
2011-10-17 11:50:03 51°26.689 2°53.104 254.9 13.2 253 29.9
2011-10-17 11:51:03 51°26.624 2°52.768 253.9 13.1 254 28.2
2011-10-17 11:52:03 51°26.569 2°52.429 254.7 13.2 254 27.3
2011-10-17 11:53:03 51°26.512 2°52.092 256.3 13.1 255 25.8
2011-10-17 11:54:02 51°26.448 2°51.767 252 12.9 252 26
2011-10-17 11:55:03 51°26.394 2°51.43 258.2 12.9 257 26.4
2011-10-17 11:56:02 51°26.355 2°51.1 263.1 12.9 261 24.8
2011-10-17 11:57:02 51°26.309 2°50.766 257.6 12.8 256 23.7
2011-10-17 11:58:02 51°26.249 2°50.438 251.9 12.9 250 23.5
2011-10-17 11:59:03 51°26.185 2°50.105 257.3 12.8 257 23.8
2011-10-17 12:00:02 51°26.151 2°49.776 262.7 12.7 261 23.5
2011-10-17 12:01:03 51°26.113 2°49.438 259.4 12.7 257 23.5
2011-10-17 12:02:02 51°26.067 2°49.162 255.2 7.7 252 24
2011-10-17 12:03:03 51°26.037 2°49.009 263.4 4.9 260 23.9
2011-10-17 12:04:03 51°26.038 2°48.893 284.1 4.1 278 24
2011-10-17 12:05:03 51°26.041 2°48.788 272.1 3.8 265 24
2011-10-17 12:06:03 51°26.032 2°48.68 267.5 4.5 263 24.3
2011-10-17 12:07:03 51°26.016 2°48.557 256.6 4.8 251 23.1
2011-10-17 12:08:03 51°26 2°48.483 255.5 0.9 240 23.7
2011-10-17 12:09:05 51°25.995 2°48.475 279.5 0.3 222 -999
2011-10-17 12:10:05 51°25.99 2°48.472 298.9 0.3 198 24.3
2011-10-17 12:11:03 51°25.986 2°48.47 310.2 0.3 193 24.2
2011-10-17 12:12:03 51°25.983 2°48.471 319.6 0.2 167 24
2011-10-17 12:13:03 51°25.977 2°48.475 329.2 0.4 158 24
2011-10-17 12:14:03 51°25.971 2°48.48 331.1 0.4 127 24.7
2011-10-17 12:15:03 51°26.012 2°48.428 319.8 6.4 315 24.4
2011-10-17 12:16:02 51°26.109 2°48.294 322.5 7.4 316 21.7
2011-10-17 12:17:02 51°26.152 2°48.199 318 1.8 305 22.2
2011-10-17 12:18:02 51°26.155 2°48.183 342.7 0.4 303 22.1
2011-10-17 12:19:02 51°26.157 2°48.175 330.6 0.3 281 21.6
2011-10-17 12:20:02 51°26.157 2°48.168 318.4 0.3 245 22.2
2011-10-17 12:21:03 51°26.154 2°48.162 310.2 0.2 200 22
2011-10-17 12:22:02 51°26.15 2°48.161 308 0.2 180 21.6
2011-10-17 12:23:03 51°26.145 2°48.163 313.1 0.4 167 21.6
2011-10-17 12:24:03 51°26.138 2°48.166 321 0.4 171 21.2
2011-10-17 12:25:03 51°26.131 2°48.169 328.2 0.4 175 20.3
2011-10-17 12:26:03 51°26.123 2°48.173 329.5 0.4 163 18.6
2011-10-17 12:27:03 51°26.118 2°48.177 326.7 0.3 155 19.7
2011-10-17 12:28:02 51°26.113 2°48.183 326.1 0.4 143 21
2011-10-17 12:29:02 51°26.109 2°48.188 323.2 0.4 133 22.4
2011-10-17 12:30:02 51°26.104 2°48.197 325.8 0.4 132 22.6
2011-10-17 12:31:03 51°26.098 2°48.206 327 0.4 135 23.6
2011-10-17 12:32:02 51°26.094 2°48.216 328.4 0.5 125 23.6
2011-10-17 12:33:02 51°26.09 2°48.226 328.9 0.5 108 23.7
2011-10-17 12:34:02 51°26.086 2°48.237 329.3 0.4 106 24.2
2011-10-17 12:35:03 51°26.085 2°48.246 326.7 0.4 96 23.7
2011-10-17 12:36:02 51°26.083 2°48.255 325.1 0.3 114 24.1
2011-10-17 12:37:03 51°26.082 2°48.265 322.2 0.4 93 24.1
2011-10-17 12:38:03 51°26.081 2°48.275 320.7 0.4 104 23.6
2011-10-17 12:39:03 51°26.079 2°48.286 321.5 0.4 102 23.3
2011-10-17 12:40:03 51°26.078 2°48.297 323.8 0.4 108 22.9
2011-10-17 12:41:03 51°26.076 2°48.309 326.1 0.6 107 22.8
2011-10-17 12:42:03 51°26.073 2°48.321 329.8 0.4 112 22.4
2011-10-17 12:43:02 51°26.07 2°48.333 332.5 0.5 111 24.1
2011-10-17 12:44:02 51°26.068 2°48.346 334 0.6 102 24.4
2011-10-17 12:45:03 51°26.067 2°48.36 331.2 0.5 104 24.1
2011-10-17 12:46:03 51°26.067 2°48.373 327.8 0.5 88 24.8
2011-10-17 12:47:02 51°26.066 2°48.385 326.4 0.5 88 24.5
2011-10-17 12:48:02 51°26.066 2°48.397 323.6 0.5 90 25
2011-10-17 12:49:02 51°26.067 2°48.412 323.1 0.5 90 24.3
2011-10-17 12:50:03 51°26.067 2°48.429 326.2 0.6 93 24.3
2011-10-17 12:51:03 51°26.067 2°48.446 328.8 0.6 91 24.7
2011-10-17 12:52:02 51°26.067 2°48.461 327.4 0.6 84 24.4
2011-10-17 12:53:03 51°26.068 2°48.476 327.3 0.6 82 24.7
2011-10-17 12:54:02 51°26.07 2°48.492 326.2 0.7 79 24.5
2011-10-17 12:55:02 51°26.071 2°48.511 326.6 0.7 82 24.2
2011-10-17 12:56:02 51°26.072 2°48.529 326.9 0.7 80 23.1
2011-10-17 12:57:03 51°26.074 2°48.548 325.7 0.7 80 23.2
2011-10-17 12:58:02 51°26.076 2°48.568 324.5 0.8 81 24.3
2011-10-17 12:59:02 51°26.08 2°48.591 326 0.9 79 25
2011-10-17 13:00:03 51°26.083 2°48.615 323.4 0.9 75 25.2
2011-10-17 13:01:02 51°26.087 2°48.639 321.5 0.9 78 25.4
2011-10-17 13:02:03 51°26.091 2°48.665 323 1 75 25.5
2011-10-17 13:03:03 51°26.095 2°48.691 326.5 0.9 63 24.9
2011-10-17 13:04:03 51°26.112 2°48.641 268 4 266 24.8
2011-10-17 13:05:02 51°26.026 2°48.52 210 10.2 210 24.6
2011-10-17 13:06:02 51°25.888 2°48.317 229.4 11.6 229 24.6
2011-10-17 13:07:02 51°25.773 2°48.066 236 11.7 236 25.1
2011-10-17 13:08:02 51°25.67 2°47.802 238.1 11.6 238 25.1
2011-10-17 13:09:02 51°25.563 2°47.545 236.6 11.6 235 26.8
2011-10-17 13:10:02 51°25.46 2°47.283 241.4 11.5 242 27.5
2011-10-17 13:11:02 51°25.369 2°47.013 242.7 11.6 242 26.7
2011-10-17 13:12:03 51°25.266 2°46.746 238.2 11.5 239 26.1
2011-10-17 13:13:02 51°25.176 2°46.483 245 11.3 245 25.5
2011-10-17 13:14:02 51°25.093 2°46.211 241.3 11.4 240 26.6
2011-10-17 13:15:02 51°24.998 2°45.95 240.2 11.3 240 26.4
2011-10-17 13:16:02 51°24.913 2°45.684 244.2 11.2 245 26.9
2011-10-17 13:17:02 51°24.832 2°45.416 243.2 11.1 243 27.3
2011-10-17 13:18:02 51°24.75 2°45.149 242 11.2 242 28.5
2011-10-17 13:19:03 51°24.659 2°44.883 240.4 11.2 241 28.8
2011-10-17 13:20:03 51°24.569 2°44.622 240.2 11.2 241 29.5
2011-10-17 13:21:02 51°24.49 2°44.359 245.4 11.1 245 28
2011-10-17 13:22:02 51°24.401 2°44.102 239.6 11 240 28.3
2011-10-17 13:23:02 51°24.319 2°43.838 242.9 11 244 25.7
2011-10-17 13:24:03 51°24.237 2°43.57 242.6 11 242 24.6
2011-10-17 13:25:02 51°24.148 2°43.32 241.2 11 242 26.9
2011-10-17 13:26:03 51°24.056 2°43.062 239.9 11 240 23.5
2011-10-17 13:27:03 51°23.973 2°42.803 244 10.9 245 25.6
2011-10-17 13:28:02 51°23.894 2°42.548 241.4 10.8 242 27.9
2011-10-17 13:29:02 51°23.815 2°42.286 244.7 11 245 29
2011-10-17 13:30:03 51°23.733 2°42.02 242.2 11 242 26.5
2011-10-17 13:31:03 51°23.649 2°41.758 243.2 11 244 27.6
2011-10-17 13:32:03 51°23.56 2°41.503 239.6 11 241 29.5
2011-10-17 13:33:02 51°23.482 2°41.244 243.8 11 245 31
2011-10-17 13:34:02 51°23.4 2°40.983 240.3 11 241 31.1
2011-10-17 13:35:02 51°23.312 2°40.729 239.3 10.9 242 31.7
2011-10-17 13:36:02 51°23.255 2°40.453 252.6 11 254 31.5
2011-10-17 13:37:02 51°23.204 2°40.175 251.8 10.9 253 31.8
2011-10-17 13:38:02 51°23.139 2°39.905 246.2 10.9 248 33.6
2011-10-17 13:39:02 51°23.078 2°39.634 248.8 10.8 251 31.9
2011-10-17 13:40:03 51°23.023 2°39.357 251.3 10.8 253 31.8
2011-10-17 13:41:02 51°22.968 2°39.091 247.7 10.6 249 31.6
2011-10-17 13:42:02 51°22.908 2°38.826 248.1 10.6 249 32.1
2011-10-17 13:43:02 51°22.845 2°38.563 247.4 10.5 249 32.5
2011-10-17 13:44:02 51°22.791 2°38.299 252.7 10.4 255 32.8
2011-10-17 13:45:02 51°22.736 2°38.036 244.8 10.4 245 32.1
2011-10-17 13:46:02 51°22.645 2°37.8 233.2 10.5 233 32
2011-10-17 13:47:02 51°22.533 2°37.584 231.4 10.5 230 32.2
2011-10-17 13:48:02 51°22.425 2°37.364 233.6 10.6 234 32.7
2011-10-17 13:49:02 51°22.329 2°37.13 236.7 10.5 237 32.3
2011-10-17 13:50:02 51°22.228 2°36.902 234.4 10.5 237 32.9
2011-10-17 13:51:03 51°22.145 2°36.653 242.1 10.4 243 33.4
2011-10-17 13:52:02 51°22.068 2°36.41 240.2 10.4 241 34
2011-10-17 13:53:02 51°21.983 2°36.173 237.8 10.3 240 33.2
2011-10-17 13:54:02 51°21.907 2°35.928 241.6 10.2 242 33.7
2011-10-17 13:55:03 51°21.818 2°35.691 237.9 10.2 239 32.8
2011-10-17 13:56:02 51°21.744 2°35.451 242.1 10.2 244 32.8
2011-10-17 13:57:02 51°21.659 2°35.211 238.9 10.4 240 33.6
2011-10-17 13:58:03 51°21.572 2°34.963 242 10.5 243 33.7
2011-10-17 13:59:02 51°21.49 2°34.72 238.3 10.6 239 34.8
2011-10-17 14:00:02 51°21.403 2°34.476 240.6 10.5 241 34.1
2011-10-17 14:01:03 51°21.322 2°34.221 243.2 10.4 243 32.8
2011-10-17 14:02:03 51°21.239 2°33.976 238.8 10.5 239 34.4
2011-10-17 14:03:02 51°21.157 2°33.733 241.6 10.6 243 34.9
2011-10-17 14:04:02 51°21.069 2°33.491 237.3 10.5 239 34.2
2011-10-17 14:05:02 51°20.991 2°33.245 242 10.4 244 33.2
2011-10-17 14:06:02 51°20.913 2°32.998 242.4 10.3 246 32.8
2011-10-17 14:07:02 51°20.838 2°32.752 241 10.3 243 32.6
2011-10-17 14:08:03 51°20.755 2°32.507 239.8 10.3 243 32.9
2011-10-17 14:09:03 51°20.674 2°32.262 240.3 10.5 243 32.7
2011-10-17 14:10:02 51°20.594 2°32.021 240.4 10.4 242 30.9
2011-10-17 14:11:03 51°20.506 2°31.777 237.9 10.4 241 28
2011-10-17 14:12:02 51°20.431 2°31.535 241.2 10.3 243 24.5
2011-10-17 14:13:02 51°20.351 2°31.292 241.1 10.3 241 22.8
2011-10-17 14:14:02 51°20.262 2°31.062 238.9 10.1 240 20.3
2011-10-17 14:15:02 51°20.182 2°30.827 246.9 10 249 19
2011-10-17 14:16:02 51°20.137 2°30.573 254.8 9.8 257 17.6
2011-10-17 14:17:02 51°20.086 2°30.33 249 9.6 251 15.9
2011-10-17 14:18:03 51°20.035 2°30.107 247.7 6.3 246 14.4
2011-10-17 14:19:02 51°20.013 2°30.029 245.5 1.7 249 15.9
2011-10-17 14:20:03 51°20.03 2°30.025 287 1.9 27 16.4
2011-10-17 14:21:02 51°20.058 2°30.062 295.3 2.2 42 15.9
2011-10-17 14:22:02 51°20.083 2°30.104 291.2 2.4 52 15.3
2011-10-17 14:23:02 51°20.104 2°30.165 299.2 2.7 63 16
2011-10-17 14:24:02 51°20.124 2°30.227 304.3 2.6 63 16.5
2011-10-17 14:25:02 51°20.144 2°30.293 307.1 2.8 66 12.5
2011-10-17 14:26:02 51°20.162 2°30.361 315.1 2.7 67 17
2011-10-17 14:27:02 51°20.181 2°30.429 316.5 2.9 67 14.1
2011-10-17 14:28:02 51°20.202 2°30.498 317.1 2.7 63 15.1
2011-10-17 14:29:02 51°20.224 2°30.555 306.5 2.4 57 17
2011-10-17 14:30:02 51°20.247 2°30.602 288.7 2 33 15.5
2011-10-17 14:31:02 51°20.248 2°30.596 226.5 1.9 187 15.3
2011-10-17 14:32:02 51°20.19 2°30.664 155.3 7.5 136 15.5
2011-10-17 14:33:02 51°20.075 2°30.875 138 12.2 131 20.9
2011-10-17 14:34:02 51°19.937 2°31.124 136.3 12.7 131 25.7
2011-10-17 14:35:02 51°19.797 2°31.369 134.6 12.4 128 32
2011-10-17 14:36:02 51°19.673 2°31.635 132.1 12.4 126 32.9
2011-10-17 14:37:02 51°19.551 2°31.902 133.1 12.4 126 32.7
2011-10-17 14:38:02 51°19.427 2°32.163 134.3 12.2 127 32.8
2011-10-17 14:39:02 51°19.308 2°32.43 132.1 12.2 126 32.8
2011-10-17 14:40:03 51°19.186 2°32.697 134.1 12.2 126 31.5
2011-10-17 14:41:02 51°19.07 2°32.963 133 12.4 127 30.8
2011-10-17 14:42:02 51°18.944 2°33.223 134.5 12.4 129 30.7
2011-10-17 14:43:02 51°18.819 2°33.487 132.3 12.5 125 26.5
2011-10-17 14:44:02 51°18.694 2°33.752 133.6 12.7 127 18.9
2011-10-17 14:45:03 51°18.564 2°34.021 134.4 12.5 128 23
2011-10-17 14:46:02 51°18.441 2°34.285 133.5 12.5 126 22.2
2011-10-17 14:47:03 51°18.316 2°34.555 132.8 12.4 126 29.1
2011-10-17 14:48:02 51°18.197 2°34.825 132.3 12.7 127 28.5
2011-10-17 14:49:02 51°18.074 2°35.096 133.6 12.4 126 22.5
2011-10-17 14:50:02 51°17.949 2°35.359 134 12.4 129 21
2011-10-17 14:51:03 51°17.794 2°35.568 152.9 11.9 148 17.6
2011-10-17 14:52:02 51°17.627 2°35.73 156.1 12.1 149 13.9
2011-10-17 14:53:03 51°17.453 2°35.897 154.7 12 148 16.1
2011-10-17 14:54:02 51°17.285 2°36.059 153.7 12.1 149 21.2
2011-10-17 14:55:02 51°17.118 2°36.233 151.8 12 145 27.2
2011-10-17 14:56:03 51°16.952 2°36.417 152.9 11.8 147 29.6
2011-10-17 14:57:02 51°16.793 2°36.591 154.1 11.5 145 29.3
2011-10-17 14:58:02 51°16.695 2°36.714 155.9 5.9 134 28.8
2011-10-17 14:59:02 51°16.649 2°36.84 145.3 4.8 119 29.1
2011-10-17 15:00:02 51°16.616 2°36.899 192.4 2.2 145 29.2
2011-10-17 15:01:02 51°16.581 2°36.933 188.1 3.2 155 29.2
2011-10-17 15:02:02 51°16.51 2°36.955 207.3 4.2 211 28.9
2011-10-17 15:03:02 51°16.509 2°36.9 258.9 2.1 304 29.2
2011-10-17 15:04:02 51°16.53 2°36.872 260.2 1.6 13 29.4
2011-10-17 15:05:02 51°16.564 2°36.9 285 2.5 31 29.2
2011-10-17 15:06:02 51°16.6 2°36.941 299.8 2.7 39 29.2
2011-10-17 15:07:02 51°16.635 2°36.992 306 2.9 46 29.1
2011-10-17 15:08:02 51°16.667 2°37.048 315.3 2.9 48 29
2011-10-17 15:09:03 51°16.699 2°37.106 319.4 2.8 49 29.1
2011-10-17 15:10:02 51°16.73 2°37.161 319.6 2.9 46 29
2011-10-17 15:11:02 51°16.763 2°37.215 312.1 2.8 44 29.2
2011-10-17 15:12:02 51°16.797 2°37.262 301.4 2.7 42 29.5
2011-10-17 15:13:02 51°16.832 2°37.307 298.1 2.7 37 30.1
2011-10-17 15:14:03 51°16.86 2°37.297 246.9 1.3 278 31.1
2011-10-17 15:15:02 51°16.834 2°37.318 159.4 4 120 30
2011-10-17 15:16:02 51°16.804 2°37.486 122.3 7.9 108 28.9
2011-10-17 15:17:02 51°16.729 2°37.61 163.8 6.8 146 28.9
2011-10-17 15:18:02 51°16.615 2°37.814 135.8 12 124 25.1
2011-10-17 15:19:02 51°16.509 2°38.098 134 12.2 130 12
2011-10-17 15:20:02 51°16.355 2°38.297 152.6 12 145 11.5
2011-10-17 15:21:02 51°16.18 2°38.431 170.5 11.4 166 12.7
2011-10-17 15:22:02 51°15.995 2°38.477 174.4 11.4 170 13.7
2011-10-17 15:23:02 51°15.812 2°38.561 168.3 11.3 164 15.2
2011-10-17 15:24:02 51°15.629 2°38.647 169.9 11.4 164 17.1
2011-10-17 15:25:02 51°15.444 2°38.719 172.6 11.4 168 18.9
2011-10-17 15:26:02 51°15.261 2°38.795 171.1 11.4 166 20.4
2011-10-17 15:27:02 51°15.078 2°38.879 168.3 11.5 163 20.5
2011-10-17 15:28:02 51°14.895 2°38.955 172.8 11.3 167 19.6
2011-10-17 15:29:02 51°14.712 2°39.025 170.2 11.3 164 18.8
2011-10-17 15:30:02 51°14.531 2°39.114 168.6 11.4 164 19.7
2011-10-17 15:31:02 51°14.349 2°39.2 169.6 11.4 164 15.2
2011-10-17 15:32:02 51°14.164 2°39.266 173.1 11.4 169 15.9
2011-10-17 15:33:02 51°13.98 2°39.341 167.9 11.5 164 16.7
2011-10-17 15:34:03 51°13.793 2°39.426 170.5 11.3 166 15.4
2011-10-17 15:35:02 51°13.612 2°39.498 172.8 11.3 168 16
2011-10-17 15:36:03 51°13.425 2°39.571 169.7 11.4 164 16.3
2011-10-17 15:37:02 51°13.246 2°39.654 169.8 11.5 165 18.1
2011-10-17 15:38:02 51°13.062 2°39.727 171.2 11.4 168 17.3
2011-10-17 15:39:02 51°12.88 2°39.805 168.5 11.3 162 16.2
2011-10-17 15:40:02 51°12.699 2°39.894 169.2 11.2 164 15.6
2011-10-17 15:41:02 51°12.518 2°39.968 171.3 11.2 166 15
2011-10-17 15:42:02 51°12.336 2°40.038 172.4 11.3 167 14.1
2011-10-17 15:43:03 51°12.15 2°40.103 177.6 11 178 12.8
2011-10-17 15:44:02 51°11.971 2°40.088 187.3 11 184 12.4
2011-10-17 15:45:02 51°11.79 2°40.066 187.3 10.9 184 11.4
2011-10-17 15:46:02 51°11.626 2°40.047 188.9 7.9 183 10.8
2011-10-17 15:47:02 51°11.513 2°40.041 184.3 7.4 174 10.2
2011-10-17 15:48:02 51°11.407 2°40.215 118.6 11.9 105 15.7
2011-10-17 15:49:03 51°11.352 2°40.553 113.2 13.3 105 18.2
2011-10-17 15:50:03 51°11.284 2°40.884 112.8 13.2 107 16
2011-10-17 15:51:03 51°11.203 2°41.204 118.2 12.9 113 14.8
2011-10-17 15:52:03 51°11.127 2°41.527 112.1 13.1 106 14.8
2011-10-17 15:53:02 51°11.072 2°41.835 111.4 10.3 106 14.8
2011-10-17 15:54:02 51°11.058 2°42.035 78.4 6.3 72 15.1
2011-10-17 15:55:02 51°11.111 2°42.133 24.4 3.2 40 15
2011-10-17 15:56:02 51°11.126 2°42.177 2.9 1.8 71 15.1
2011-10-17 15:57:02 51°11.138 2°42.219 3.3 1.8 64 14.9
2011-10-17 15:58:02 51°11.151 2°42.264 1.8 2 61 14.8
2011-10-17 15:59:03 51°11.168 2°42.308 352 1.9 57 14.7
2011-10-17 16:00:03 51°11.186 2°42.348 340.3 1.8 54 14.8
2011-10-17 16:01:02 51°11.203 2°42.385 330.2 1.8 56 14.6
2011-10-17 16:02:03 51°11.219 2°42.427 323.7 1.8 58 14.6
2011-10-17 16:03:03 51°11.235 2°42.467 319.1 1.8 59 14.5
2011-10-17 16:04:02 51°11.29 2°42.498 20.1 5.1 35 14.3
2011-10-17 16:05:02 51°11.316 2°42.639 106.9 7.1 100 14.4
2011-10-17 16:06:02 51°11.257 2°42.881 120.9 11.8 117 14.9
2011-10-17 16:07:02 51°11.199 2°43.205 98.5 13.3 95 15.1
2011-10-17 16:08:03 51°11.213 2°43.565 82.1 13.4 82 15.1
2011-10-17 16:09:02 51°11.267 2°43.903 74.3 13.5 74 15.1
2011-10-17 16:10:02 51°11.332 2°44.244 72.7 13.3 71 15
2011-10-17 16:11:02 51°11.395 2°44.587 73.4 13.5 72 15.1
2011-10-17 16:12:03 51°11.469 2°44.929 71.9 13.4 72 15
2011-10-17 16:13:02 51°11.553 2°45.253 63.6 13.4 64 15.1
2011-10-17 16:14:02 51°11.645 2°45.579 67.2 13.6 68 15.1
2011-10-17 16:15:02 51°11.716 2°45.919 74.1 13.4 74 15.2
2011-10-17 16:16:02 51°11.784 2°46.259 72.7 13.6 71 15.1
2011-10-17 16:17:02 51°11.868 2°46.591 66.6 13.6 65 15
2011-10-17 16:18:02 51°11.962 2°46.917 65.5 13.6 63 15
2011-10-17 16:19:02 51°12.044 2°47.251 71.3 13.6 71 14.9
2011-10-17 16:20:03 51°12.13 2°47.589 65.1 13.5 64 14.8
2011-10-17 16:21:03 51°12.224 2°47.914 66.5 13.5 67 14.6
2011-10-17 16:22:03 51°12.304 2°48.249 71.2 13.5 71 14.3
2011-10-17 16:23:03 51°12.391 2°48.578 63.4 13.4 62 14.2
2011-10-17 16:24:02 51°12.489 2°48.891 65.6 13.4 64 14.1
2011-10-17 16:25:02 51°12.605 2°49.196 55.1 13.5 55 13.9
2011-10-17 16:26:02 51°12.719 2°49.503 63 13.5 61 13.8
2011-10-17 16:27:02 51°12.834 2°49.809 56.5 13.4 55 13.7
2011-10-17 16:28:02 51°12.945 2°50.121 66.9 13.6 64 13.5
2011-10-17 16:29:02 51°13.048 2°50.437 65.1 13.5 65 13.2
2011-10-17 16:30:03 51°13.15 2°50.76 61.5 13.4 59 13.1
2011-10-17 16:31:02 51°13.266 2°51.059 58.6 13.5 57 13.1
2011-10-17 16:32:02 51°13.388 2°51.358 61.1 13.6 60 13.2
2011-10-17 16:33:02 51°13.499 2°51.668 60.8 13.5 59 12.9
2011-10-17 16:34:02 51°13.628 2°51.96 53.7 13.4 54 12.6
2011-10-17 16:35:02 51°13.758 2°52.249 54.7 13.5 54 12.6
2011-10-17 16:36:02 51°13.877 2°52.553 59.6 13.5 57 12.4
2011-10-17 16:37:02 51°14.001 2°52.852 56.5 13.5 57 12.2
2011-10-17 16:38:02 51°14.122 2°53.155 60.6 13.6 58 12.1
2011-10-17 16:39:02 51°14.243 2°53.455 59 13.5 57 11.9
2011-10-17 16:40:03 51°14.367 2°53.759 59 13.5 57 11.7
2011-10-17 16:41:03 51°14.479 2°54.066 61.7 13.3 61 11.8
2011-10-17 16:42:02 51°14.58 2°54.372 62.7 13.3 60 11.9
2011-10-17 16:43:03 51°14.629 2°54.705 98.8 12.6 97 13.2
2011-10-17 16:44:02 51°14.539 2°54.985 133.6 11.9 136 13.8
2011-10-17 16:45:02 51°14.391 2°55.162 146 10 147 12.3
2011-10-17 16:46:03 51°14.26 2°55.302 146.7 9 147 12.9
2011-10-17 16:47:03 51°14.133 2°55.414 154.5 8.6 155 12.9
2011-10-17 16:48:03 51°14.003 2°55.506 155.7 8.5 156 13.8
2011-10-17 16:49:02 51°13.881 2°55.591 155.5 7.9 156 13.4
2011-10-17 16:50:03 51°13.776 2°55.685 143.8 6.6 142 13.5
2011-10-17 16:51:02 51°13.707 2°55.8 130.7 5.7 129 13.9
2011-10-17 16:52:02 51°13.663 2°55.896 122.7 3.7 122 13.1